KFSD/FSD METAR and TAF weather

Enter ICAO airport designator
Station Type Date Time Source
KFSD METAR 2019/10/15 08:56 UTC NOAA

KFSD 150856Z AUTO 31010KT 10SM CLR 04/02 A2984 RMK AO2 SLP109 T00440017 53037 $


Station Type Date Time Source
KFSD Decoded METAR 2019/10/15 08:56 UTC NOAA

SIOUX FALLS FOSS FIELD, SD, United States (KFSD) 43-35N 096-45W 434M
Oct 15, 2019 - 04:56 AM EDT / 2019.10.15 0856 UTC
Wind: from the NW (310 degrees) at 12 MPH (10 KT):0
Visibility: 10 mile(s):0
Sky conditions: clear
Temperature: 39.9 F (4.4 C)
Dew Point: 35.1 F (1.7 C)
Relative Humidity: 82%
Pressure (altimeter): 29.84 in. Hg (1010 hPa)
Pressure tendency: 0.11 inches (3.7 hPa) higher than three hours ago
ob: KFSD 150856Z AUTO 31010KT 10SM CLR 04/02 A2984 RMK AO2 SLP109 T00440017 53037
cycle: 9

Station Type Date Time Source
KFSD TAF 2019/10/15 06:24 UTC NOAA

TAF KFSD 150520Z 1506/1606 28009KT P6SM SCT250
FM151400 30017G30KT P6SM BKN250
FM151600 31024G35KT P6SM BKN025
FM160100 32014G23KT P6SM BKN025

Example: see airport list